sensor_id;sensor_type;location;lat;lon;timestamp;P1;durP1;ratioP1;P2;durP2;ratioP2
8556;SDS011;4316;53.840;10.762;2023-01-24T00:01:14;24.47;;;11.63;;
8556;SDS011;4316;53.840;10.762;2023-01-24T00:03:40;23.03;;;11.03;;
8556;SDS011;4316;53.840;10.762;2023-01-24T00:06:06;30.27;;;11.53;;
8556;SDS011;4316;53.840;10.762;2023-01-24T00:08:31;26.70;;;11.27;;
8556;SDS011;4316;53.840;10.762;2023-01-24T00:10:58;20.27;;;11.67;;
8556;SDS011;4316;53.840;10.762;2023-01-24T00:13:25;27.80;;;10.67;;
8556;SDS011;4316;53.840;10.762;2023-01-24T00:15:51;23.63;;;11.70;;
8556;SDS011;4316;53.840;10.762;2023-01-24T00:18:25;24.97;;;11.83;;
8556;SDS011;4316;53.840;10.762;2023-01-24T00:20:51;22.00;;;11.23;;
8556;SDS011;4316;53.840;10.762;2023-01-24T00:23:16;27.47;;;12.17;;
8556;SDS011;4316;53.840;10.762;2023-01-24T00:25:42;23.23;;;11.10;;
8556;SDS011;4316;53.840;10.762;2023-01-24T00:28:07;28.03;;;12.03;;
8556;SDS011;4316;53.840;10.762;2023-01-24T00:30:33;25.07;;;11.10;;
8556;SDS011;4316;53.840;10.762;2023-01-24T00:32:59;24.87;;;11.87;;
8556;SDS011;4316;53.840;10.762;2023-01-24T00:35:25;22.27;;;10.80;;
8556;SDS011;4316;53.840;10.762;2023-01-24T00:37:50;22.77;;;11.90;;
8556;SDS011;4316;53.840;10.762;2023-01-24T00:40:16;22.00;;;11.40;;
8556;SDS011;4316;53.840;10.762;2023-01-24T00:42:43;28.07;;;12.13;;
8556;SDS011;4316;53.840;10.762;2023-01-24T00:45:08;27.60;;;11.60;;
8556;SDS011;4316;53.840;10.762;2023-01-24T00:47:34;20.80;;;10.23;;
8556;SDS011;4316;53.840;10.762;2023-01-24T00:49:59;31.33;;;11.73;;
8556;SDS011;4316;53.840;10.762;2023-01-24T00:52:25;32.70;;;12.30;;
8556;SDS011;4316;53.840;10.762;2023-01-24T00:54:51;22.33;;;11.37;;
8556;SDS011;4316;53.840;10.762;2023-01-24T00:57:16;36.80;;;13.13;;
8556;SDS011;4316;53.840;10.762;2023-01-24T00:59:42;32.23;;;13.17;;
8556;SDS011;4316;53.840;10.762;2023-01-24T01:02:07;29.57;;;12.27;;
8556;SDS011;4316;53.840;10.762;2023-01-24T01:04:33;23.90;;;11.60;;
8556;SDS011;4316;53.840;10.762;2023-01-24T01:06:58;33.47;;;12.77;;
8556;SDS011;4316;53.840;10.762;2023-01-24T01:09:24;27.53;;;11.97;;
8556;SDS011;4316;53.840;10.762;2023-01-24T01:11:49;33.17;;;12.93;;
8556;SDS011;4316;53.840;10.762;2023-01-24T01:14:15;30.90;;;11.60;;
8556;SDS011;4316;53.840;10.762;2023-01-24T01:16:41;23.13;;;11.60;;
8556;SDS011;4316;53.840;10.762;2023-01-24T01:19:07;31.50;;;12.93;;
8556;SDS011;4316;53.840;10.762;2023-01-24T01:21:34;21.73;;;10.57;;
8556;SDS011;4316;53.840;10.762;2023-01-24T01:23:59;28.97;;;10.50;;
8556;SDS011;4316;53.840;10.762;2023-01-24T01:26:25;25.90;;;11.20;;
8556;SDS011;4316;53.840;10.762;2023-01-24T01:28:51;25.53;;;11.87;;
8556;SDS011;4316;53.840;10.762;2023-01-24T01:31:17;27.27;;;11.90;;
8556;SDS011;4316;53.840;10.762;2023-01-24T01:33:44;36.97;;;11.67;;
8556;SDS011;4316;53.840;10.762;2023-01-24T01:36:10;30.33;;;11.93;;
8556;SDS011;4316;53.840;10.762;2023-01-24T01:38:36;24.33;;;11.63;;
8556;SDS011;4316;53.840;10.762;2023-01-24T01:41:02;29.27;;;11.90;;
8556;SDS011;4316;53.840;10.762;2023-01-24T01:43:29;26.30;;;10.07;;
8556;SDS011;4316;53.840;10.762;2023-01-24T01:45:58;29.03;;;12.40;;
8556;SDS011;4316;53.840;10.762;2023-01-24T01:48:42;22.27;;;10.80;;
8556;SDS011;4316;53.840;10.762;2023-01-24T01:51:17;24.63;;;11.00;;
8556;SDS011;4316;53.840;10.762;2023-01-24T01:56:29;29.93;;;11.77;;
8556;SDS011;4316;53.840;10.762;2023-01-24T01:59:02;24.60;;;12.23;;
8556;SDS011;4316;53.840;10.762;2023-01-24T02:01:31;24.93;;;10.77;;
8556;SDS011;4316;53.840;10.762;2023-01-24T02:04:00;24.00;;;10.80;;
8556;SDS011;4316;53.840;10.762;2023-01-24T02:09:26;23.93;;;11.77;;
8556;SDS011;4316;53.840;10.762;2023-01-24T02:11:54;20.83;;;10.80;;
8556;SDS011;4316;53.840;10.762;2023-01-24T02:14:23;25.20;;;11.07;;
8556;SDS011;4316;53.840;10.762;2023-01-24T02:17:09;26.50;;;10.80;;
8556;SDS011;4316;53.840;10.762;2023-01-24T02:22:25;24.87;;;11.73;;
8556;SDS011;4316;53.840;10.762;2023-01-24T02:25:06;25.73;;;11.83;;
8556;SDS011;4316;53.840;10.762;2023-01-24T02:27:47;25.20;;;11.07;;
8556;SDS011;4316;53.840;10.762;2023-01-24T02:30:13;28.07;;;10.27;;
8556;SDS011;4316;53.840;10.762;2023-01-24T02:32:38;24.90;;;10.80;;
8556;SDS011;4316;53.840;10.762;2023-01-24T02:35:04;19.60;;;9.33;;
8556;SDS011;4316;53.840;10.762;2023-01-24T02:37:31;19.33;;;8.67;;
8556;SDS011;4316;53.840;10.762;2023-01-24T02:40:04;21.50;;;9.60;;
8556;SDS011;4316;53.840;10.762;2023-01-24T02:42:33;18.47;;;9.37;;
8556;SDS011;4316;53.840;10.762;2023-01-24T02:47:36;20.23;;;9.67;;
8556;SDS011;4316;53.840;10.762;2023-01-24T02:50:06;24.30;;;10.00;;
8556;SDS011;4316;53.840;10.762;2023-01-24T02:52:33;20.20;;;9.90;;
8556;SDS011;4316;53.840;10.762;2023-01-24T02:55:17;21.57;;;9.70;;
8556;SDS011;4316;53.840;10.762;2023-01-24T02:57:43;18.43;;;9.37;;
8556;SDS011;4316;53.840;10.762;2023-01-24T03:00:27;21.97;;;10.30;;
8556;SDS011;4316;53.840;10.762;2023-01-24T03:02:53;18.37;;;10.17;;
8556;SDS011;4316;53.840;10.762;2023-01-24T03:05:18;26.07;;;10.80;;
8556;SDS011;4316;53.840;10.762;2023-01-24T03:07:44;21.97;;;10.30;;
8556;SDS011;4316;53.840;10.762;2023-01-24T03:10:16;22.50;;;9.77;;
8556;SDS011;4316;53.840;10.762;2023-01-24T03:12:47;25.23;;;10.20;;
8556;SDS011;4316;53.840;10.762;2023-01-24T03:15:31;17.53;;;9.43;;
8556;SDS011;4316;53.840;10.762;2023-01-24T03:18:15;20.77;;;9.70;;
8556;SDS011;4316;53.840;10.762;2023-01-24T03:21:00;22.70;;;8.87;;
8556;SDS011;4316;53.840;10.762;2023-01-24T03:23:44;14.90;;;7.97;;
8556;SDS011;4316;53.840;10.762;2023-01-24T03:26:28;13.57;;;7.70;;
8556;SDS011;4316;53.840;10.762;2023-01-24T03:29:14;16.40;;;7.27;;
8556;SDS011;4316;53.840;10.762;2023-01-24T03:31:59;12.40;;;6.63;;
8556;SDS011;4316;53.840;10.762;2023-01-24T03:34:43;13.10;;;6.97;;
8556;SDS011;4316;53.840;10.762;2023-01-24T03:37:21;12.57;;;6.83;;
8556;SDS011;4316;53.840;10.762;2023-01-24T03:40:10;14.20;;;7.20;;
8556;SDS011;4316;53.840;10.762;2023-01-24T03:42:38;21.90;;;8.53;;
8556;SDS011;4316;53.840;10.762;2023-01-24T03:45:24;14.87;;;8.40;;
8556;SDS011;4316;53.840;10.762;2023-01-24T03:47:53;16.40;;;7.97;;
8556;SDS011;4316;53.840;10.762;2023-01-24T03:50:25;15.30;;;8.37;;
8556;SDS011;4316;53.840;10.762;2023-01-24T03:53:11;15.10;;;7.60;;
8556;SDS011;4316;53.840;10.762;2023-01-24T03:55:38;13.33;;;7.00;;
8556;SDS011;4316;53.840;10.762;2023-01-24T03:58:05;9.20;;;6.70;;
8556;SDS011;4316;53.840;10.762;2023-01-24T04:00:31;13.80;;;6.53;;
8556;SDS011;4316;53.840;10.762;2023-01-24T04:03:01;10.57;;;6.20;;
8556;SDS011;4316;53.840;10.762;2023-01-24T04:05:28;12.37;;;6.70;;
8556;SDS011;4316;53.840;10.762;2023-01-24T04:07:54;14.50;;;6.73;;
8556;SDS011;4316;53.840;10.762;2023-01-24T04:10:21;10.60;;;5.67;;
8556;SDS011;4316;53.840;10.762;2023-01-24T04:12:48;9.97;;;6.00;;
8556;SDS011;4316;53.840;10.762;2023-01-24T04:15:19;11.40;;;6.37;;
8556;SDS011;4316;53.840;10.762;2023-01-24T04:17:56;8.00;;;5.47;;
8556;SDS011;4316;53.840;10.762;2023-01-24T04:20:23;14.53;;;5.67;;
8556;SDS011;4316;53.840;10.762;2023-01-24T04:22:50;13.27;;;5.70;;
8556;SDS011;4316;53.840;10.762;2023-01-24T04:25:15;9.03;;;5.80;;
8556;SDS011;4316;53.840;10.762;2023-01-24T04:27:44;11.33;;;6.30;;
8556;SDS011;4316;53.840;10.762;2023-01-24T04:30:13;15.27;;;6.90;;
8556;SDS011;4316;53.840;10.762;2023-01-24T04:32:43;9.07;;;5.83;;
8556;SDS011;4316;53.840;10.762;2023-01-24T04:35:17;8.73;;;6.17;;
8556;SDS011;4316;53.840;10.762;2023-01-24T04:37:50;8.50;;;5.77;;
8556;SDS011;4316;53.840;10.762;2023-01-24T04:40:30;9.67;;;6.63;;
8556;SDS011;4316;53.840;10.762;2023-01-24T04:42:56;13.97;;;8.67;;
8556;SDS011;4316;53.840;10.762;2023-01-24T04:45:23;13.90;;;7.83;;
8556;SDS011;4316;53.840;10.762;2023-01-24T04:47:49;14.20;;;6.83;;
8556;SDS011;4316;53.840;10.762;2023-01-24T04:50:14;15.67;;;9.77;;
8556;SDS011;4316;53.840;10.762;2023-01-24T04:52:41;13.07;;;8.90;;
8556;SDS011;4316;53.840;10.762;2023-01-24T04:55:08;12.37;;;8.30;;
8556;SDS011;4316;53.840;10.762;2023-01-24T04:57:34;11.80;;;8.00;;
8556;SDS011;4316;53.840;10.762;2023-01-24T05:00:00;13.83;;;8.27;;
8556;SDS011;4316;53.840;10.762;2023-01-24T05:02:27;14.20;;;6.80;;
8556;SDS011;4316;53.840;10.762;2023-01-24T05:04:52;9.07;;;6.20;;
8556;SDS011;4316;53.840;10.762;2023-01-24T05:07:18;16.27;;;7.13;;
8556;SDS011;4316;53.840;10.762;2023-01-24T05:09:49;9.83;;;5.80;;
8556;SDS011;4316;53.840;10.762;2023-01-24T05:12:15;13.20;;;6.00;;
8556;SDS011;4316;53.840;10.762;2023-01-24T05:14:41;10.47;;;6.40;;
8556;SDS011;4316;53.840;10.762;2023-01-24T05:17:08;11.13;;;6.63;;
8556;SDS011;4316;53.840;10.762;2023-01-24T05:19:34;8.73;;;6.13;;
8556;SDS011;4316;53.840;10.762;2023-01-24T05:21:59;12.37;;;6.53;;
8556;SDS011;4316;53.840;10.762;2023-01-24T05:24:29;8.20;;;5.80;;
8556;SDS011;4316;53.840;10.762;2023-01-24T05:26:55;7.47;;;5.50;;
8556;SDS011;4316;53.840;10.762;2023-01-24T05:29:24;9.93;;;5.93;;
8556;SDS011;4316;53.840;10.762;2023-01-24T05:31:52;9.00;;;6.13;;
8556;SDS011;4316;53.840;10.762;2023-01-24T05:34:18;9.63;;;5.97;;
8556;SDS011;4316;53.840;10.762;2023-01-24T05:36:43;8.30;;;5.60;;
8556;SDS011;4316;53.840;10.762;2023-01-24T05:39:10;10.13;;;6.33;;
8556;SDS011;4316;53.840;10.762;2023-01-24T05:41:35;7.33;;;5.13;;
8556;SDS011;4316;53.840;10.762;2023-01-24T05:44:02;7.67;;;5.60;;
8556;SDS011;4316;53.840;10.762;2023-01-24T05:46:34;7.70;;;5.23;;
8556;SDS011;4316;53.840;10.762;2023-01-24T05:49:15;10.83;;;6.33;;
8556;SDS011;4316;53.840;10.762;2023-01-24T05:51:42;12.50;;;7.13;;
8556;SDS011;4316;53.840;10.762;2023-01-24T05:54:09;12.20;;;7.97;;
8556;SDS011;4316;53.840;10.762;2023-01-24T05:56:53;9.47;;;7.37;;
8556;SDS011;4316;53.840;10.762;2023-01-24T05:59:20;10.20;;;6.87;;
8556;SDS011;4316;53.840;10.762;2023-01-24T06:01:45;10.50;;;6.37;;
8556;SDS011;4316;53.840;10.762;2023-01-24T06:04:11;8.23;;;6.37;;
8556;SDS011;4316;53.840;10.762;2023-01-24T06:06:38;11.10;;;6.30;;
8556;SDS011;4316;53.840;10.762;2023-01-24T06:09:03;9.30;;;5.93;;
8556;SDS011;4316;53.840;10.762;2023-01-24T06:11:30;11.20;;;6.20;;
8556;SDS011;4316;53.840;10.762;2023-01-24T06:14:05;7.90;;;6.20;;
8556;SDS011;4316;53.840;10.762;2023-01-24T06:16:30;9.20;;;6.07;;
8556;SDS011;4316;53.840;10.762;2023-01-24T06:18:56;9.10;;;6.50;;
8556;SDS011;4316;53.840;10.762;2023-01-24T06:24:03;14.87;;;6.83;;
8556;SDS011;4316;53.840;10.762;2023-01-24T06:26:48;9.03;;;7.20;;
8556;SDS011;4316;53.840;10.762;2023-01-24T06:29:15;11.93;;;6.57;;
8556;SDS011;4316;53.840;10.762;2023-01-24T06:31:56;10.63;;;7.00;;
8556;SDS011;4316;53.840;10.762;2023-01-24T06:37:42;9.30;;;6.27;;
8556;SDS011;4316;53.840;10.762;2023-01-24T06:40:15;12.67;;;7.07;;
8556;SDS011;4316;53.840;10.762;2023-01-24T06:42:45;8.30;;;5.83;;
8556;SDS011;4316;53.840;10.762;2023-01-24T06:45:11;8.50;;;5.90;;
8556;SDS011;4316;53.840;10.762;2023-01-24T06:47:37;7.83;;;5.93;;
8556;SDS011;4316;53.840;10.762;2023-01-24T06:50:04;8.47;;;5.53;;
8556;SDS011;4316;53.840;10.762;2023-01-24T06:52:33;7.30;;;4.87;;
8556;SDS011;4316;53.840;10.762;2023-01-24T06:54:59;7.73;;;5.67;;
8556;SDS011;4316;53.840;10.762;2023-01-24T06:57:24;9.57;;;6.80;;
8556;SDS011;4316;53.840;10.762;2023-01-24T06:59:50;33.83;;;17.00;;
8556;SDS011;4316;53.840;10.762;2023-01-24T07:02:16;19.73;;;11.13;;
8556;SDS011;4316;53.840;10.762;2023-01-24T07:04:41;28.93;;;14.87;;
8556;SDS011;4316;53.840;10.762;2023-01-24T07:07:07;22.10;;;11.00;;
8556;SDS011;4316;53.840;10.762;2023-01-24T07:09:32;13.23;;;7.70;;
8556;SDS011;4316;53.840;10.762;2023-01-24T07:11:58;9.17;;;6.67;;
8556;SDS011;4316;53.840;10.762;2023-01-24T07:14:24;9.07;;;6.70;;
8556;SDS011;4316;53.840;10.762;2023-01-24T07:16:50;13.40;;;7.60;;
8556;SDS011;4316;53.840;10.762;2023-01-24T07:19:17;31.93;;;11.33;;
8556;SDS011;4316;53.840;10.762;2023-01-24T07:21:46;27.90;;;11.37;;
8556;SDS011;4316;53.840;10.762;2023-01-24T07:24:17;24.20;;;10.37;;
8556;SDS011;4316;53.840;10.762;2023-01-24T07:26:44;14.67;;;7.93;;
8556;SDS011;4316;53.840;10.762;2023-01-24T07:29:10;11.40;;;6.67;;
8556;SDS011;4316;53.840;10.762;2023-01-24T07:31:36;6.37;;;5.73;;
8556;SDS011;4316;53.840;10.762;2023-01-24T07:34:03;10.73;;;7.77;;
8556;SDS011;4316;53.840;10.762;2023-01-24T07:36:28;11.20;;;7.53;;
8556;SDS011;4316;53.840;10.762;2023-01-24T07:38:57;14.13;;;8.70;;
8556;SDS011;4316;53.840;10.762;2023-01-24T07:41:23;15.77;;;11.00;;
8556;SDS011;4316;53.840;10.762;2023-01-24T07:43:51;18.07;;;10.90;;
8556;SDS011;4316;53.840;10.762;2023-01-24T07:46:18;12.77;;;8.90;;
8556;SDS011;4316;53.840;10.762;2023-01-24T07:48:44;14.70;;;9.97;;
8556;SDS011;4316;53.840;10.762;2023-01-24T07:51:11;12.07;;;9.20;;
8556;SDS011;4316;53.840;10.762;2023-01-24T07:53:37;11.20;;;9.10;;
8556;SDS011;4316;53.840;10.762;2023-01-24T07:56:02;10.37;;;7.93;;
8556;SDS011;4316;53.840;10.762;2023-01-24T07:58:29;9.00;;;7.40;;
8556;SDS011;4316;53.840;10.762;2023-01-24T08:00:55;9.80;;;6.87;;
8556;SDS011;4316;53.840;10.762;2023-01-24T08:03:21;8.60;;;6.70;;
8556;SDS011;4316;53.840;10.762;2023-01-24T08:05:46;10.23;;;8.30;;
8556;SDS011;4316;53.840;10.762;2023-01-24T08:08:12;8.93;;;7.97;;
8556;SDS011;4316;53.840;10.762;2023-01-24T08:10:37;10.37;;;7.30;;
8556;SDS011;4316;53.840;10.762;2023-01-24T08:13:03;8.00;;;5.70;;
8556;SDS011;4316;53.840;10.762;2023-01-24T08:15:29;5.93;;;5.17;;
8556;SDS011;4316;53.840;10.762;2023-01-24T08:17:54;6.47;;;5.17;;
8556;SDS011;4316;53.840;10.762;2023-01-24T08:20:20;7.87;;;5.00;;
8556;SDS011;4316;53.840;10.762;2023-01-24T08:22:46;6.30;;;5.10;;
8556;SDS011;4316;53.840;10.762;2023-01-24T08:25:12;5.93;;;5.17;;
8556;SDS011;4316;53.840;10.762;2023-01-24T08:27:40;5.37;;;4.63;;
8556;SDS011;4316;53.840;10.762;2023-01-24T08:30:07;4.77;;;4.37;;
8556;SDS011;4316;53.840;10.762;2023-01-24T08:32:35;5.03;;;4.40;;
8556;SDS011;4316;53.840;10.762;2023-01-24T08:35:01;6.30;;;4.10;;
8556;SDS011;4316;53.840;10.762;2023-01-24T08:37:28;5.80;;;4.77;;
8556;SDS011;4316;53.840;10.762;2023-01-24T08:39:54;5.00;;;4.47;;
8556;SDS011;4316;53.840;10.762;2023-01-24T08:42:21;4.47;;;4.17;;
8556;SDS011;4316;53.840;10.762;2023-01-24T08:44:47;5.07;;;3.93;;
8556;SDS011;4316;53.840;10.762;2023-01-24T08:47:13;2.90;;;2.60;;
8556;SDS011;4316;53.840;10.762;2023-01-24T08:49:38;3.23;;;2.90;;
8556;SDS011;4316;53.840;10.762;2023-01-24T08:52:04;3.17;;;2.90;;
8556;SDS011;4316;53.840;10.762;2023-01-24T08:54:30;3.60;;;3.30;;
8556;SDS011;4316;53.840;10.762;2023-01-24T08:57:01;3.47;;;3.17;;
8556;SDS011;4316;53.840;10.762;2023-01-24T08:59:28;3.00;;;2.80;;
8556;SDS011;4316;53.840;10.762;2023-01-24T09:01:53;3.80;;;3.50;;
8556;SDS011;4316;53.840;10.762;2023-01-24T09:04:19;4.03;;;3.60;;
8556;SDS011;4316;53.840;10.762;2023-01-24T09:06:45;3.80;;;3.50;;
8556;SDS011;4316;53.840;10.762;2023-01-24T09:09:11;3.50;;;3.20;;
8556;SDS011;4316;53.840;10.762;2023-01-24T09:11:36;4.37;;;3.97;;
8556;SDS011;4316;53.840;10.762;2023-01-24T09:14:02;4.20;;;3.90;;
8556;SDS011;4316;53.840;10.762;2023-01-24T09:16:28;3.83;;;3.53;;
8556;SDS011;4316;53.840;10.762;2023-01-24T09:18:54;4.13;;;3.47;;
8556;SDS011;4316;53.840;10.762;2023-01-24T09:21:20;3.40;;;3.20;;
8556;SDS011;4316;53.840;10.762;2023-01-24T09:23:46;4.27;;;3.63;;
8556;SDS011;4316;53.840;10.762;2023-01-24T09:26:12;8.73;;;3.87;;
8556;SDS011;4316;53.840;10.762;2023-01-24T09:28:38;3.47;;;3.17;;
8556;SDS011;4316;53.840;10.762;2023-01-24T09:31:06;4.20;;;3.80;;
8556;SDS011;4316;53.840;10.762;2023-01-24T09:33:32;4.03;;;3.63;;
8556;SDS011;4316;53.840;10.762;2023-01-24T09:35:59;3.93;;;3.57;;
8556;SDS011;4316;53.840;10.762;2023-01-24T09:38:26;3.80;;;3.50;;
8556;SDS011;4316;53.840;10.762;2023-01-24T09:41:08;3.67;;;3.37;;
8556;SDS011;4316;53.840;10.762;2023-01-24T09:43:52;5.50;;;3.37;;
8556;SDS011;4316;53.840;10.762;2023-01-24T09:49:41;4.33;;;3.57;;
8556;SDS011;4316;53.840;10.762;2023-01-24T09:51:54;3.83;;;3.50;;
8556;SDS011;4316;53.840;10.762;2023-01-24T09:57:16;2.63;;;2.43;;
8556;SDS011;4316;53.840;10.762;2023-01-24T09:59:47;2.97;;;2.77;;
8556;SDS011;4316;53.840;10.762;2023-01-24T10:02:18;2.90;;;2.60;;
8556;SDS011;4316;53.840;10.762;2023-01-24T10:04:46;2.20;;;2.10;;
8556;SDS011;4316;53.840;10.762;2023-01-24T10:09:55;2.23;;;2.10;;
8556;SDS011;4316;53.840;10.762;2023-01-24T10:18:02;2.57;;;2.37;;
8556;SDS011;4316;53.840;10.762;2023-01-24T10:23:33;2.97;;;2.77;;
8556;SDS011;4316;53.840;10.762;2023-01-24T10:26:24;2.50;;;2.30;;
8556;SDS011;4316;53.840;10.762;2023-01-24T10:29:20;7.27;;;2.50;;
8556;SDS011;4316;53.840;10.762;2023-01-24T10:32:03;7.27;;;3.20;;
8556;SDS011;4316;53.840;10.762;2023-01-24T10:34:32;2.47;;;2.37;;
8556;SDS011;4316;53.840;10.762;2023-01-24T10:37:06;3.13;;;2.60;;
8556;SDS011;4316;53.840;10.762;2023-01-24T10:39:37;3.20;;;3.00;;
8556;SDS011;4316;53.840;10.762;2023-01-24T10:42:14;3.50;;;3.20;;
8556;SDS011;4316;53.840;10.762;2023-01-24T10:44:46;2.80;;;2.60;;
8556;SDS011;4316;53.840;10.762;2023-01-24T10:49:51;2.70;;;2.50;;
8556;SDS011;4316;53.840;10.762;2023-01-24T10:52:29;2.53;;;2.43;;
8556;SDS011;4316;53.840;10.762;2023-01-24T10:54:57;2.53;;;2.40;;
8556;SDS011;4316;53.840;10.762;2023-01-24T10:57:38;2.47;;;2.17;;
8556;SDS011;4316;53.840;10.762;2023-01-24T11:00:17;2.70;;;2.50;;
8556;SDS011;4316;53.840;10.762;2023-01-24T11:02:51;2.77;;;2.57;;
8556;SDS011;4316;53.840;10.762;2023-01-24T11:05:19;3.10;;;2.80;;
8556;SDS011;4316;53.840;10.762;2023-01-24T11:07:50;4.37;;;3.97;;
8556;SDS011;4316;53.840;10.762;2023-01-24T11:10:22;4.80;;;3.77;;
8556;SDS011;4316;53.840;10.762;2023-01-24T11:12:51;5.87;;;4.13;;
8556;SDS011;4316;53.840;10.762;2023-01-24T11:15:23;7.73;;;3.93;;
8556;SDS011;4316;53.840;10.762;2023-01-24T11:17:53;5.10;;;4.20;;
8556;SDS011;4316;53.840;10.762;2023-01-24T11:20:28;4.87;;;4.47;;
8556;SDS011;4316;53.840;10.762;2023-01-24T11:25:55;5.07;;;4.63;;
8556;SDS011;4316;53.840;10.762;2023-01-24T11:28:33;5.10;;;4.50;;
8556;SDS011;4316;53.840;10.762;2023-01-24T11:31:01;15.37;;;4.27;;
8556;SDS011;4316;53.840;10.762;2023-01-24T11:33:36;7.27;;;4.13;;
8556;SDS011;4316;53.840;10.762;2023-01-24T11:39:02;5.13;;;4.63;;
8556;SDS011;4316;53.840;10.762;2023-01-24T11:41:51;7.53;;;5.37;;
8556;SDS011;4316;53.840;10.762;2023-01-24T11:47:11;6.07;;;5.10;;
8556;SDS011;4316;53.840;10.762;2023-01-24T11:49:48;5.47;;;4.93;;
8556;SDS011;4316;53.840;10.762;2023-01-24T11:52:28;6.67;;;5.40;;
8556;SDS011;4316;53.840;10.762;2023-01-24T11:58:13;7.47;;;4.57;;
8556;SDS011;4316;53.840;10.762;2023-01-24T12:00:42;9.70;;;5.67;;
8556;SDS011;4316;53.840;10.762;2023-01-24T12:03:41;11.13;;;8.90;;
8556;SDS011;4316;53.840;10.762;2023-01-24T12:09:09;12.83;;;9.10;;
8556;SDS011;4316;53.840;10.762;2023-01-24T12:22:48;10.07;;;8.60;;
8556;SDS011;4316;53.840;10.762;2023-01-24T12:25:25;12.20;;;9.17;;
8556;SDS011;4316;53.840;10.762;2023-01-24T12:28:01;10.53;;;7.33;;
8556;SDS011;4316;53.840;10.762;2023-01-24T12:30:35;7.67;;;6.93;;
8556;SDS011;4316;53.840;10.762;2023-01-24T12:33:11;7.77;;;6.97;;
8556;SDS011;4316;53.840;10.762;2023-01-24T12:36:01;10.37;;;7.43;;
8556;SDS011;4316;53.840;10.762;2023-01-24T12:38:54;8.27;;;7.47;;
8556;SDS011;4316;53.840;10.762;2023-01-24T12:41:31;6.77;;;6.10;;
8556;SDS011;4316;53.840;10.762;2023-01-24T12:49:48;7.67;;;6.87;;
8556;SDS011;4316;53.840;10.762;2023-01-24T12:52:38;11.60;;;7.77;;
8556;SDS011;4316;53.840;10.762;2023-01-24T12:55:14;10.03;;;8.00;;
8556;SDS011;4316;53.840;10.762;2023-01-24T13:00:33;11.63;;;9.37;;
8556;SDS011;4316;53.840;10.762;2023-01-24T13:03:41;13.13;;;10.10;;
8556;SDS011;4316;53.840;10.762;2023-01-24T13:11:43;31.73;;;17.20;;
8556;SDS011;4316;53.840;10.762;2023-01-24T13:14:20;27.63;;;14.80;;
8556;SDS011;4316;53.840;10.762;2023-01-24T13:17:04;20.20;;;13.50;;
8556;SDS011;4316;53.840;10.762;2023-01-24T13:25:22;10.90;;;9.67;;
8556;SDS011;4316;53.840;10.762;2023-01-24T13:27:55;14.13;;;10.33;;
8556;SDS011;4316;53.840;10.762;2023-01-24T13:30:32;10.80;;;9.70;;
8556;SDS011;4316;53.840;10.762;2023-01-24T13:33:03;13.17;;;9.53;;
8556;SDS011;4316;53.840;10.762;2023-01-24T13:35:30;14.97;;;10.90;;
8556;SDS011;4316;53.840;10.762;2023-01-24T13:38:15;13.53;;;10.67;;
8556;SDS011;4316;53.840;10.762;2023-01-24T13:41:01;13.60;;;9.50;;
8556;SDS011;4316;53.840;10.762;2023-01-24T13:49:53;11.97;;;9.67;;
8556;SDS011;4316;53.840;10.762;2023-01-24T13:51:52;11.20;;;9.37;;
8556;SDS011;4316;53.840;10.762;2023-01-24T13:59:56;12.03;;;10.80;;
8556;SDS011;4316;53.840;10.762;2023-01-24T14:02:32;12.60;;;11.30;;
8556;SDS011;4316;53.840;10.762;2023-01-24T14:05:01;13.47;;;11.60;;
8556;SDS011;4316;53.840;10.762;2023-01-24T14:10:02;12.97;;;11.57;;
8556;SDS011;4316;53.840;10.762;2023-01-24T14:12:31;14.10;;;10.80;;
8556;SDS011;4316;53.840;10.762;2023-01-24T14:23:14;12.57;;;10.20;;
8556;SDS011;4316;53.840;10.762;2023-01-24T14:25:49;13.77;;;11.70;;
8556;SDS011;4316;53.840;10.762;2023-01-24T14:28:36;12.43;;;11.07;;
8556;SDS011;4316;53.840;10.762;2023-01-24T14:31:26;12.17;;;10.73;;
8556;SDS011;4316;53.840;10.762;2023-01-24T14:36:41;16.07;;;12.77;;
8556;SDS011;4316;53.840;10.762;2023-01-24T14:41:53;13.53;;;12.13;;
8556;SDS011;4316;53.840;10.762;2023-01-24T14:44:31;13.90;;;11.93;;
8556;SDS011;4316;53.840;10.762;2023-01-24T14:46:59;16.00;;;11.83;;
8556;SDS011;4316;53.840;10.762;2023-01-24T14:49:31;13.73;;;11.47;;
8556;SDS011;4316;53.840;10.762;2023-01-24T14:54:51;14.53;;;11.80;;
8556;SDS011;4316;53.840;10.762;2023-01-24T14:57:18;14.00;;;12.00;;
8556;SDS011;4316;53.840;10.762;2023-01-24T15:02:50;15.47;;;11.20;;
8556;SDS011;4316;53.840;10.762;2023-01-24T15:07:53;18.53;;;12.37;;
8556;SDS011;4316;53.840;10.762;2023-01-24T15:12:51;14.57;;;12.00;;
8556;SDS011;4316;53.840;10.762;2023-01-24T15:15:18;14.63;;;11.00;;
8556;SDS011;4316;53.840;10.762;2023-01-24T15:17:45;14.57;;;11.77;;
8556;SDS011;4316;53.840;10.762;2023-01-24T15:20:14;16.57;;;12.77;;
8556;SDS011;4316;53.840;10.762;2023-01-24T15:22:43;17.20;;;13.03;;
8556;SDS011;4316;53.840;10.762;2023-01-24T15:25:31;16.63;;;12.57;;
8556;SDS011;4316;53.840;10.762;2023-01-24T15:30:57;17.20;;;12.00;;
8556;SDS011;4316;53.840;10.762;2023-01-24T15:33:25;17.50;;;13.27;;
8556;SDS011;4316;53.840;10.762;2023-01-24T15:36:04;15.33;;;12.63;;
8556;SDS011;4316;53.840;10.762;2023-01-24T15:38:47;22.00;;;15.10;;
8556;SDS011;4316;53.840;10.762;2023-01-24T15:41:21;21.17;;;14.77;;
8556;SDS011;4316;53.840;10.762;2023-01-24T15:43:59;16.70;;;14.53;;
8556;SDS011;4316;53.840;10.762;2023-01-24T15:49:24;27.83;;;22.63;;
8556;SDS011;4316;53.840;10.762;2023-01-24T15:54:33;15.73;;;13.20;;
8556;SDS011;4316;53.840;10.762;2023-01-24T15:57:02;14.73;;;12.37;;
8556;SDS011;4316;53.840;10.762;2023-01-24T15:59:29;14.37;;;11.17;;
8556;SDS011;4316;53.840;10.762;2023-01-24T16:01:56;13.27;;;11.23;;
8556;SDS011;4316;53.840;10.762;2023-01-24T16:04:22;19.33;;;15.50;;
8556;SDS011;4316;53.840;10.762;2023-01-24T16:06:48;16.77;;;13.33;;
8556;SDS011;4316;53.840;10.762;2023-01-24T16:09:14;25.63;;;20.47;;
8556;SDS011;4316;53.840;10.762;2023-01-24T16:11:40;19.33;;;16.33;;
8556;SDS011;4316;53.840;10.762;2023-01-24T16:14:10;16.33;;;13.53;;
8556;SDS011;4316;53.840;10.762;2023-01-24T16:16:40;16.03;;;13.10;;
8556;SDS011;4316;53.840;10.762;2023-01-24T16:19:13;24.87;;;18.83;;
8556;SDS011;4316;53.840;10.762;2023-01-24T16:21:41;132.40;;;83.70;;
8556;SDS011;4316;53.840;10.762;2023-01-24T16:24:07;65.00;;;45.67;;
8556;SDS011;4316;53.840;10.762;2023-01-24T16:26:32;15.40;;;13.07;;
8556;SDS011;4316;53.840;10.762;2023-01-24T16:28:59;13.97;;;10.33;;
8556;SDS011;4316;53.840;10.762;2023-01-24T16:31:24;12.60;;;10.37;;
8556;SDS011;4316;53.840;10.762;2023-01-24T16:33:50;14.37;;;10.63;;
8556;SDS011;4316;53.840;10.762;2023-01-24T16:36:15;16.33;;;10.53;;
8556;SDS011;4316;53.840;10.762;2023-01-24T16:38:41;12.47;;;10.50;;
8556;SDS011;4316;53.840;10.762;2023-01-24T16:41:09;47.13;;;24.87;;
8556;SDS011;4316;53.840;10.762;2023-01-24T16:43:35;24.87;;;16.40;;
8556;SDS011;4316;53.840;10.762;2023-01-24T16:46:01;12.33;;;9.30;;
8556;SDS011;4316;53.840;10.762;2023-01-24T16:48:29;51.17;;;29.80;;
8556;SDS011;4316;53.840;10.762;2023-01-24T16:50:55;14.70;;;11.43;;
8556;SDS011;4316;53.840;10.762;2023-01-24T16:53:20;9.50;;;8.50;;
8556;SDS011;4316;53.840;10.762;2023-01-24T16:55:54;9.03;;;7.93;;
8556;SDS011;4316;53.840;10.762;2023-01-24T16:58:21;9.57;;;8.63;;
8556;SDS011;4316;53.840;10.762;2023-01-24T17:00:47;11.73;;;8.77;;
8556;SDS011;4316;53.840;10.762;2023-01-24T17:03:12;9.13;;;8.17;;
8556;SDS011;4316;53.840;10.762;2023-01-24T17:05:39;24.40;;;17.83;;
8556;SDS011;4316;53.840;10.762;2023-01-24T17:08:05;17.43;;;10.27;;
8556;SDS011;4316;53.840;10.762;2023-01-24T17:10:31;16.40;;;9.97;;
8556;SDS011;4316;53.840;10.762;2023-01-24T17:12:56;10.83;;;8.40;;
8556;SDS011;4316;53.840;10.762;2023-01-24T17:15:22;12.63;;;9.63;;